Time;durP1;ratioP1;P1;durP2;ratioP2;P2;SDS_P1;SDS_P2;PMS_P1;PMS_P2;Temp;Humidity;BMP_temperature;BMP_pressure;BME280_temperature;BME280_humidity;BME280_pressure;Samples;Min_cycle;Max_cycle;Signal;HPM_P1;HPM_P2
2022/05/07 00:00:36;;;;;;;8.27;3.45;;;17.00;39.30;;;;;;4940112;28;20041;-85
2022/05/07 00:03:02;;;;;;;7.78;3.28;;;17.00;39.30;;;;;;4942979;28;20027;-85
2022/05/07 00:05:28;;;;;;;6.45;3.30;;;17.00;39.30;;;;;;4947389;28;20033;-85
2022/05/07 00:07:54;;;;;;;9.10;3.28;;;17.00;39.30;;;;;;4966079;28;20125;-85
2022/05/07 00:10:20;;;;;;;7.78;3.42;;;17.00;39.40;;;;;;4934098;28;20572;-86
2022/05/07 00:12:46;;;;;;;6.13;3.50;;;17.00;39.60;;;;;;4932201;28;20035;-86
2022/05/07 00:15:12;;;;;;;6.82;3.20;;;17.00;39.40;;;;;;4947758;28;20053;-86
2022/05/07 00:20:23;;;;;;;5.72;3.35;;;17.00;39.40;;;;;;4948163;28;20035;-86
2022/05/07 00:22:49;;;;;;;5.68;3.20;;;17.00;39.40;;;;;;4950038;28;20335;-86
2022/05/07 00:25:15;;;;;;;6.47;3.20;;;17.00;39.50;;;;;;4971727;28;20057;-85
2022/05/07 00:27:41;;;;;;;5.38;2.92;;;17.00;39.60;;;;;;4966044;28;20042;-85
2022/05/07 00:30:07;;;;;;;3.95;2.65;;;17.00;39.50;;;;;;4944787;28;20046;-85
2022/05/07 00:32:34;;;;;;;5.18;2.92;;;17.00;39.70;;;;;;4965310;28;21124;-85
2022/05/07 00:35:00;;;;;;;5.93;3.53;;;17.00;39.60;;;;;;4948257;28;20031;-85
2022/05/07 00:37:26;;;;;;;6.38;3.28;;;16.90;39.50;;;;;;5012636;28;20031;-87
2022/05/07 00:39:52;;;;;;;5.95;3.05;;;16.90;39.70;;;;;;4947193;28;20041;-86
2022/05/07 00:42:20;;;;;;;6.60;2.90;;;16.90;39.60;;;;;;4924579;28;20409;-88
2022/05/07 00:44:46;;;;;;;5.50;2.60;;;16.90;39.50;;;;;;4968488;28;20034;-87
2022/05/07 00:47:15;;;;;;;5.55;3.20;;;16.90;39.50;;;;;;4943016;28;20118;-86
2022/05/07 00:49:45;;;;;;;4.80;3.15;;;16.90;39.40;;;;;;4944375;28;20058;-86
2022/05/07 00:52:10;;;;;;;4.25;2.60;;;16.90;39.40;;;;;;4947968;28;20437;-85
2022/05/07 00:54:37;;;;;;;7.03;3.00;;;16.90;39.40;;;;;;4932045;28;20431;-85
2022/05/07 00:57:07;;;;;;;4.72;2.97;;;16.90;39.40;;;;;;4928042;28;20408;-85
2022/05/07 00:59:33;;;;;;;6.28;3.03;;;16.90;39.50;;;;;;5031092;28;20144;-84
2022/05/07 01:01:59;;;;;;;5.22;2.88;;;16.90;39.50;;;;;;4965618;28;20073;-85
2022/05/07 01:04:26;;;;;;;3.75;2.70;;;16.80;39.50;;;;;;4927665;28;20574;-83
2022/05/07 01:06:53;;;;;;;5.90;2.67;;;16.90;39.60;;;;;;4964582;28;20050;-86
2022/05/07 01:09:20;;;;;;;7.55;3.33;;;16.90;39.60;;;;;;4963411;28;20050;-84
2022/05/07 01:11:47;;;;;;;6.93;2.90;;;16.90;39.60;;;;;;4946954;28;20035;-84
2022/05/07 01:14:13;;;;;;;7.15;2.80;;;16.80;39.60;;;;;;4974628;28;20157;-85
2022/05/07 01:16:39;;;;;;;5.20;2.78;;;16.80;39.60;;;;;;4931058;28;20042;-84
2022/05/07 01:19:05;;;;;;;4.70;2.53;;;16.80;39.60;;;;;;4943194;28;20061;-85
2022/05/07 01:21:31;;;;;;;5.70;3.13;;;16.80;39.60;;;;;;5030823;28;20520;-85
2022/05/07 01:23:59;;;;;;;5.43;2.97;;;16.80;39.50;;;;;;4958047;28;20035;-86
2022/05/07 01:26:30;;;;;;;6.18;3.20;;;16.80;39.50;;;;;;4942299;28;20091;-85
2022/05/07 01:28:59;;;;;;;3.80;2.25;;;16.80;39.40;;;;;;4932289;28;20042;-85
2022/05/07 01:31:28;;;;;;;5.90;2.85;;;16.80;39.60;;;;;;4930550;28;20572;-84
2022/05/07 01:33:54;;;;;;;4.97;2.75;;;16.80;39.60;;;;;;4962737;28;20039;-85
2022/05/07 01:36:21;;;;;;;4.80;2.38;;;16.80;39.50;;;;;;4947112;28;20051;-85
2022/05/07 01:38:54;;;;;;;9.65;3.13;;;16.80;39.50;;;;;;5027500;28;20047;-84
2022/05/07 01:41:20;;;;;;;6.95;2.80;;;16.80;39.50;;;;;;4950183;28;20050;-84
2022/05/07 01:43:48;;;;;;;5.57;2.85;;;16.70;39.50;;;;;;4950190;28;20376;-84
2022/05/07 01:49:03;;;;;;;4.70;2.47;;;16.70;39.50;;;;;;4965095;28;20031;-84
2022/05/07 01:51:30;;;;;;;4.97;2.67;;;16.70;39.50;;;;;;4933488;28;20027;-84
2022/05/07 01:53:57;;;;;;;5.65;2.70;;;16.70;39.60;;;;;;4948043;28;20458;-84
2022/05/07 01:56:23;;;;;;;4.15;2.65;;;16.70;39.70;;;;;;4950017;28;20113;-84
2022/05/07 01:58:49;;;;;;;6.55;2.70;;;16.80;39.80;;;;;;4950540;28;20092;-83
2022/05/07 02:01:16;;;;;;;6.20;2.90;;;16.70;39.70;;;;;;4942000;28;20067;-85
2022/05/07 02:03:42;;;;;;;5.47;2.80;;;16.80;39.60;;;;;;4949689;28;20042;-83
2022/05/07 02:06:09;;;;;;;5.55;2.67;;;16.80;39.50;;;;;;4960099;28;20074;-83
2022/05/07 02:08:37;;;;;;;5.00;2.47;;;16.70;39.50;;;;;;4936533;28;20080;-82
2022/05/07 02:11:08;;;;;;;8.25;2.92;;;16.80;39.60;;;;;;4966296;28;20069;-82
2022/05/07 02:13:35;;;;;;;8.48;2.83;;;16.80;39.60;;;;;;4967764;28;20520;-83
2022/05/07 02:16:02;;;;;;;8.32;2.70;;;16.80;39.60;;;;;;4949880;28;20162;-84
2022/05/07 02:18:27;;;;;;;5.25;2.60;;;16.70;39.60;;;;;;4967574;28;20161;-83
2022/05/07 02:20:56;;;;;;;5.72;2.65;;;16.70;39.60;;;;;;4965892;28;20623;-83
2022/05/07 02:23:22;;;;;;;4.45;2.67;;;16.70;39.60;;;;;;4950681;28;20040;-83
2022/05/07 02:25:49;;;;;;;5.28;2.88;;;16.70;39.60;;;;;;4949792;28;20027;-82
2022/05/07 02:28:16;;;;;;;3.17;2.60;;;16.70;39.70;;;;;;4965249;28;20035;-83
2022/05/07 02:30:42;;;;;;;6.00;2.72;;;16.70;39.70;;;;;;4965592;28;20601;-83
2022/05/07 02:33:08;;;;;;;3.72;2.72;;;16.70;39.70;;;;;;4949461;28;20134;-84
2022/05/07 02:35:37;;;;;;;5.63;2.70;;;16.80;39.80;;;;;;4949613;28;20100;-83
2022/05/07 02:38:03;;;;;;;5.15;2.60;;;16.80;39.70;;;;;;4965703;28;20041;-84
2022/05/07 02:40:30;;;;;;;5.30;2.60;;;16.80;39.90;;;;;;4933752;28;20042;-85
2022/05/07 02:42:58;;;;;;;5.32;3.00;;;16.80;39.90;;;;;;4965437;28;20097;-85
2022/05/07 02:45:24;;;;;;;3.92;2.83;;;16.80;39.90;;;;;;4945972;28;20034;-85
2022/05/07 02:47:54;;;;;;;6.10;2.60;;;16.80;39.90;;;;;;4950742;28;20039;-84
2022/05/07 02:50:22;;;;;;;7.10;2.72;;;16.80;39.90;;;;;;4949419;28;20031;-84
2022/05/07 02:52:48;;;;;;;3.70;2.40;;;16.80;39.80;;;;;;5049066;28;20791;-85
2022/05/07 02:55:14;;;;;;;5.50;2.42;;;16.80;39.80;;;;;;4946619;28;20485;-84
2022/05/07 02:57:45;;;;;;;5.20;2.53;;;16.70;39.70;;;;;;4965273;28;20042;-84
2022/05/07 03:00:12;;;;;;;4.38;2.40;;;16.70;39.80;;;;;;4944559;28;20092;-84
2022/05/07 03:02:39;;;;;;;5.70;2.55;;;16.70;39.80;;;;;;4962811;28;20108;-84
2022/05/07 03:05:06;;;;;;;5.07;2.65;;;16.70;39.80;;;;;;4949400;28;21052;-84
2022/05/07 03:07:32;;;;;;;5.68;2.83;;;16.80;39.70;;;;;;4948820;28;20563;-84
2022/05/07 03:10:03;;;;;;;10.90;3.10;;;16.70;39.70;;;;;;4944975;28;20035;-84
2022/05/07 03:12:29;;;;;;;6.47;2.83;;;16.70;39.60;;;;;;4963144;28;20066;-85
2022/05/07 03:14:55;;;;;;;7.82;2.85;;;16.70;39.60;;;;;;4948758;28;20068;-84
2022/05/07 03:17:23;;;;;;;5.88;2.75;;;16.70;39.60;;;;;;4948646;28;20420;-85
2022/05/07 03:19:49;;;;;;;7.30;3.00;;;16.70;39.60;;;;;;5050285;28;20039;-85
2022/05/07 03:22:16;;;;;;;4.88;2.75;;;16.80;39.70;;;;;;4964860;28;20041;-84
2022/05/07 03:24:42;;;;;;;5.75;2.65;;;16.80;39.80;;;;;;4950177;28;20035;-86
2022/05/07 03:27:09;;;;;;;5.00;2.70;;;16.70;39.70;;;;;;5048616;28;20421;-84
2022/05/07 03:29:35;;;;;;;7.18;2.65;;;16.80;39.90;;;;;;4945103;28;20054;-85
2022/05/07 03:32:17;;;;;;;5.47;2.40;;;16.80;39.90;;;;;;4965597;28;20049;-85
2022/05/07 03:34:49;;;;;;;4.13;2.50;;;16.80;39.90;;;;;;4945465;28;20039;-84
2022/05/07 03:37:15;;;;;;;5.45;3.00;;;16.80;39.90;;;;;;4964560;28;20073;-84
2022/05/07 03:39:43;;;;;;;5.22;2.92;;;16.80;39.90;;;;;;4948781;28;20101;-85
2022/05/07 03:42:11;;;;;;;10.38;3.00;;;16.80;39.90;;;;;;4916486;28;20053;-84
2022/05/07 03:44:37;;;;;;;5.60;2.67;;;16.80;39.90;;;;;;4964589;28;20492;-84
2022/05/07 03:47:06;;;;;;;5.28;2.72;;;16.90;39.90;;;;;;4964575;28;20467;-84
2022/05/07 03:49:32;;;;;;;4.53;3.05;;;16.90;39.90;;;;;;4975408;28;20035;-84
2022/05/07 03:54:43;;;;;;;4.30;2.90;;;16.90;40.00;;;;;;4944376;28;20057;-85
2022/05/07 03:57:13;;;;;;;4.53;2.70;;;16.90;40.10;;;;;;4948071;28;20628;-85
2022/05/07 03:59:40;;;;;;;8.00;3.20;;;17.00;40.10;;;;;;4948824;28;20539;-84
2022/05/07 04:02:07;;;;;;;7.70;2.95;;;17.00;40.10;;;;;;4964342;28;21475;-85
2022/05/07 04:04:44;;;;;;;4.30;2.92;;;17.00;40.00;;;;;;4943938;28;20627;-85
2022/05/07 04:07:12;;;;;;;5.95;2.75;;;17.00;40.10;;;;;;4947536;28;20066;-84
2022/05/07 04:09:43;;;;;;;4.55;2.80;;;17.00;40.30;;;;;;4964456;28;20087;-85
2022/05/07 04:12:11;;;;;;;5.93;3.00;;;17.00;40.10;;;;;;4931715;28;20475;-84
2022/05/07 04:14:38;;;;;;;7.45;3.30;;;17.10;40.10;;;;;;4948586;28;20053;-83
2022/05/07 04:17:06;;;;;;;5.25;2.70;;;17.10;40.00;;;;;;4964598;28;21506;-84
2022/05/07 04:19:33;;;;;;;5.97;3.22;;;17.20;40.20;;;;;;4965518;28;20035;-84
2022/05/07 04:22:01;;;;;;;8.57;3.03;;;17.20;40.30;;;;;;4948269;28;20057;-84
2022/05/07 04:24:37;;;;;;;7.28;3.10;;;17.20;40.10;;;;;;4949311;28;20035;-84
2022/05/07 04:27:03;;;;;;;3.75;2.70;;;17.20;40.00;;;;;;4931397;28;20035;-88
2022/05/07 04:29:30;;;;;;;5.53;2.70;;;17.20;40.30;;;;;;4963477;28;20049;-87
2022/05/07 04:32:06;;;;;;;6.30;2.53;;;17.20;40.40;;;;;;4931795;28;20591;-89
2022/05/07 04:34:33;;;;;;;6.53;2.83;;;17.20;40.90;;;;;;4963761;28;20042;-89
2022/05/07 04:37:02;;;;;;;4.85;2.75;;;17.20;41.30;;;;;;4931693;28;20447;-90
2022/05/07 04:39:29;;;;;;;3.58;2.20;;;17.30;41.40;;;;;;4944992;28;20146;-89
2022/05/07 04:42:02;;;;;;;5.60;2.20;;;17.40;41.50;;;;;;4932367;28;20035;-91
2022/05/07 04:44:37;;;;;;;3.92;2.15;;;17.50;41.50;;;;;;5016453;28;20038;-92
2022/05/07 04:47:07;;;;;;;4.53;2.30;;;17.70;41.60;;;;;;4947948;28;20031;-91
2022/05/07 04:49:33;;;;;;;3.10;2.38;;;17.80;41.70;;;;;;5020240;28;20043;-88
2022/05/07 04:51:59;;;;;;;3.45;2.53;;;17.90;41.80;;;;;;4950410;28;20031;-86
2022/05/07 04:55:11;;;;;;;5.30;2.88;;;18.10;41.80;;;;;;4920430;28;20038;-87
2022/05/07 04:57:37;;;;;;;4.82;2.40;;;18.20;42.00;;;;;;4970778;28;20031;-86
2022/05/07 05:00:07;;;;;;;5.43;2.50;;;18.30;42.00;;;;;;4957747;28;20038;-87
2022/05/07 05:03:02;;;;;;;2.65;2.30;;;18.40;42.10;;;;;;4983679;28;20072;-86
2022/05/07 05:05:29;;;;;;;6.50;2.40;;;18.50;42.10;;;;;;4968835;28;20035;-87
2022/05/07 05:08:06;;;;;;;5.68;2.38;;;18.50;42.20;;;;;;4942314;28;20736;-86
2022/05/07 05:10:33;;;;;;;6.20;2.72;;;18.60;42.30;;;;;;4966722;28;20082;-86
2022/05/07 05:13:00;;;;;;;3.70;2.47;;;18.60;42.40;;;;;;4948713;28;20056;-90
2022/05/07 05:15:26;;;;;;;5.97;2.70;;;18.60;42.50;;;;;;4948367;28;20046;-86
2022/05/07 05:18:06;;;;;;;5.28;2.58;;;18.70;42.60;;;;;;4954593;28;20030;-87
2022/05/07 05:20:35;;;;;;;3.80;2.50;;;18.70;42.60;;;;;;4943714;28;20034;-86
2022/05/07 05:23:16;;;;;;;6.28;2.72;;;18.80;42.60;;;;;;4970162;28;20093;-87
2022/05/07 05:25:47;;;;;;;9.88;2.95;;;18.90;42.60;;;;;;4970712;28;21007;-85
2022/05/07 05:28:33;;;;;;;8.82;2.90;;;19.00;42.60;;;;;;4953095;28;20533;-87
2022/05/07 05:31:04;;;;;;;5.82;3.00;;;19.10;42.50;;;;;;4966937;28;20433;-88
2022/05/07 05:33:35;;;;;;;5.97;2.70;;;19.10;42.50;;;;;;4934426;28;20420;-84
2022/05/07 05:36:10;;;;;;;5.90;2.72;;;19.20;42.70;;;;;;4965765;28;20042;-84
2022/05/07 05:38:39;;;;;;;4.97;3.03;;;19.30;42.80;;;;;;4965529;28;20035;-86
2022/05/07 05:41:07;;;;;;;7.15;2.85;;;19.40;42.80;;;;;;4934251;28;20598;-85
2022/05/07 05:43:38;;;;;;;6.43;3.10;;;19.40;42.70;;;;;;5033697;28;20118;-84
2022/05/07 05:46:05;;;;;;;6.53;3.33;;;19.50;42.70;;;;;;4964961;28;20536;-84
2022/05/07 05:48:31;;;;;;;5.50;2.85;;;19.60;42.70;;;;;;4965491;28;20045;-84
2022/05/07 05:50:59;;;;;;;6.15;3.00;;;19.60;42.80;;;;;;4970047;28;20058;-83
2022/05/07 05:53:31;;;;;;;7.57;2.97;;;19.70;42.90;;;;;;4966438;28;20122;-82
2022/05/07 05:55:59;;;;;;;5.78;2.95;;;19.80;42.80;;;;;;4952317;28;20073;-82
2022/05/07 05:58:35;;;;;;;6.00;3.20;;;19.80;42.50;;;;;;4947182;28;20443;-82
2022/05/07 06:01:06;;;;;;;5.50;3.60;;;19.90;42.20;;;;;;5049854;28;20130;-83
2022/05/07 06:03:34;;;;;;;7.53;3.20;;;20.00;41.80;;;;;;4966566;28;20039;-84
2022/05/07 06:06:00;;;;;;;8.68;3.42;;;20.10;41.70;;;;;;4949849;28;20058;-82
2022/05/07 06:08:27;;;;;;;5.82;2.70;;;20.20;41.60;;;;;;4967515;28;20042;-82
2022/05/07 06:10:57;;;;;;;5.30;3.08;;;20.20;41.50;;;;;;4950453;28;20027;-84
2022/05/07 06:13:24;;;;;;;6.95;2.70;;;20.30;41.50;;;;;;5013318;28;20035;-84
2022/05/07 06:15:52;;;;;;;7.80;2.95;;;20.30;41.10;;;;;;4964514;28;20035;-83
2022/05/07 06:18:22;;;;;;;7.22;2.90;;;20.40;40.90;;;;;;4963852;28;20100;-83
2022/05/07 06:20:53;;;;;;;6.88;2.92;;;20.50;40.70;;;;;;4945652;28;20046;-87
2022/05/07 06:23:19;;;;;;;13.93;3.22;;;20.60;40.60;;;;;;5032431;28;20973;-86
2022/05/07 06:28:30;;;;;;;4.65;2.75;;;20.70;40.30;;;;;;4949556;28;20034;-86
2022/05/07 06:30:59;;;;;;;4.90;2.75;;;20.80;40.30;;;;;;4949824;28;20089;-90
2022/05/07 06:33:28;;;;;;;5.25;2.92;;;20.80;40.20;;;;;;4948878;28;20050;-90
2022/05/07 06:35:58;;;;;;;6.53;2.90;;;20.90;40.30;;;;;;4917564;28;20041;-88
2022/05/07 06:38:28;;;;;;;6.65;2.72;;;20.90;40.30;;;;;;4947815;28;20039;-88
2022/05/07 06:40:56;;;;;;;9.18;2.90;;;21.00;40.30;;;;;;4950743;28;20509;-88
2022/05/07 06:43:23;;;;;;;6.35;2.63;;;20.90;40.00;;;;;;4949836;28;20039;-81
2022/05/07 06:46:12;;;;;;;5.80;2.50;;;21.00;39.70;;;;;;4970393;28;20084;-87
2022/05/07 06:48:45;;;;;;;5.10;2.90;;;21.10;39.80;;;;;;4933549;28;20031;-88
2022/05/07 06:51:20;;;;;;;3.72;2.20;;;21.10;40.00;;;;;;4969968;28;20034;-86
2022/05/07 06:53:46;;;;;;;5.03;2.60;;;21.20;40.00;;;;;;4918624;28;20335;-88
2022/05/07 06:56:12;;;;;;;8.48;2.53;;;21.20;39.90;;;;;;4944041;28;20031;-87
2022/05/07 06:58:38;;;;;;;6.18;2.42;;;21.20;39.50;;;;;;4970204;28;20046;-87
2022/05/07 07:01:04;;;;;;;6.82;2.88;;;21.20;39.30;;;;;;5011677;28;20481;-87
2022/05/07 07:03:30;;;;;;;5.32;2.50;;;21.10;38.70;;;;;;4935273;28;20118;-87
2022/05/07 07:05:57;;;;;;;9.45;3.20;;;21.10;38.80;;;;;;4952580;28;20047;-87
2022/05/07 07:08:25;;;;;;;4.70;2.40;;;21.10;39.00;;;;;;4944812;28;20031;-87
2022/05/07 07:10:51;;;;;;;6.45;2.40;;;21.20;38.60;;;;;;4949682;28;20737;-89
2022/05/07 07:13:19;;;;;;;9.63;2.72;;;21.20;38.50;;;;;;4933477;28;20133;-86
2022/05/07 07:15:45;;;;;;;9.15;2.88;;;21.30;38.90;;;;;;4964988;28;20070;-89
2022/05/07 07:18:11;;;;;;;6.00;2.80;;;21.40;38.10;;;;;;4948583;28;20066;-87
2022/05/07 07:20:42;;;;;;;6.32;2.90;;;21.30;37.70;;;;;;4966179;28;20058;-87
2022/05/07 07:23:11;;;;;;;5.20;2.63;;;21.40;38.10;;;;;;4949939;28;20043;-86
2022/05/07 07:25:39;;;;;;;3.95;2.83;;;21.40;37.90;;;;;;4948859;28;20035;-87
2022/05/07 07:28:05;;;;;;;7.72;2.80;;;21.40;37.70;;;;;;4966185;28;20490;-87
2022/05/07 07:30:32;;;;;;;4.93;2.50;;;21.40;37.70;;;;;;4948849;28;20501;-87
2022/05/07 07:32:57;;;;;;;7.18;2.40;;;21.40;37.60;;;;;;4953372;28;20048;-88
2022/05/07 07:35:23;;;;;;;4.90;2.95;;;21.40;37.90;;;;;;4932871;28;20050;-87
2022/05/07 07:37:50;;;;;;;6.38;2.90;;;21.40;37.80;;;;;;4933101;28;20026;-88
2022/05/07 07:40:16;;;;;;;6.68;2.60;;;21.30;37.60;;;;;;4953251;28;20041;-88
2022/05/07 07:42:42;;;;;;;7.05;2.53;;;21.30;37.50;;;;;;4933472;28;20031;-85
2022/05/07 07:48:04;;;;;;;3.65;2.30;;;21.20;36.90;;;;;;4965315;28;20039;-82
2022/05/07 07:50:34;;;;;;;;;;;21.20;36.80;;;;;;4965533;28;20035;-81
2022/05/07 07:53:03;;;;;;;5.05;2.47;;;21.20;37.40;;;;;;5048387;28;19914;-81
2022/05/07 07:55:29;;;;;;;6.78;2.45;;;21.30;37.60;;;;;;4965233;28;20100;-81
2022/05/07 07:58:00;;;;;;;6.07;2.97;;;21.10;36.80;;;;;;4964977;28;20042;-85
2022/05/07 08:00:27;;;;;;;5.03;2.60;;;21.10;36.80;;;;;;4941557;28;20035;-83
2022/05/07 08:02:55;;;;;;;8.15;2.70;;;21.20;36.90;;;;;;4965123;28;20521;-82
2022/05/07 08:05:23;;;;;;;4.18;2.47;;;21.10;37.00;;;;;;4965213;28;20115;-82
2022/05/07 08:13:19;;;;;;;7.32;2.78;;;21.10;36.60;;;;;;4965166;28;20419;-82
2022/05/07 08:15:46;;;;;;;7.55;3.08;;;21.10;38.50;;;;;;4963093;28;20042;-80
2022/05/07 08:18:12;;;;;;;5.43;2.80;;;21.10;39.10;;;;;;4964321;28;20453;-80
2022/05/07 08:20:41;;;;;;;4.40;3.05;;;21.10;39.60;;;;;;4964946;28;20466;-81
2022/05/07 08:23:08;;;;;;;7.00;3.60;;;21.10;39.90;;;;;;4964949;28;20033;-84
2022/05/07 08:25:34;;;;;;;10.55;3.83;;;21.10;40.20;;;;;;4964901;28;20035;-82
2022/05/07 08:28:00;;;;;;;10.10;3.80;;;21.20;40.60;;;;;;4946786;28;20168;-80
2022/05/07 08:30:26;;;;;;;11.23;4.43;;;21.20;40.90;;;;;;4942858;28;20517;-81
2022/05/07 08:32:52;;;;;;;11.00;4.85;;;21.20;40.60;;;;;;4964220;28;20042;-78
2022/05/07 08:35:18;;;;;;;7.40;4.13;;;21.20;40.40;;;;;;4965174;28;20121;-78
2022/05/07 08:37:45;;;;;;;8.32;4.00;;;21.20;39.80;;;;;;4965139;28;20035;-78
2022/05/07 08:40:16;;;;;;;4.97;3.40;;;21.30;39.10;;;;;;4965048;28;20035;-79
2022/05/07 08:42:43;;;;;;;5.85;3.88;;;21.20;38.80;;;;;;4964449;28;20130;-80
2022/05/07 08:45:12;;;;;;;5.45;3.70;;;21.20;39.20;;;;;;4964471;28;20441;-81
2022/05/07 08:47:38;;;;;;;42.25;5.20;;;21.20;39.30;;;;;;4964400;28;20080;-81
2022/05/07 08:50:08;;;;;;;11.95;4.25;;;21.20;39.70;;;;;;4964108;28;20039;-80
2022/05/07 08:52:42;;;;;;;7.13;3.50;;;21.20;40.90;;;;;;4964801;28;20038;-80
2022/05/07 08:55:21;;;;;;;9.38;3.15;;;21.20;40.60;;;;;;4965234;28;20035;-83
2022/05/07 08:57:50;;;;;;;6.65;3.20;;;21.30;39.80;;;;;;4964283;28;20049;-81
2022/05/07 09:00:21;;;;;;;8.23;3.05;;;21.30;39.50;;;;;;4965437;28;20436;-82
2022/05/07 09:02:52;;;;;;;8.85;3.17;;;21.30;39.20;;;;;;4964242;28;20049;-79
2022/05/07 09:05:20;;;;;;;5.15;3.00;;;21.30;38.80;;;;;;4965977;28;20409;-79
2022/05/07 09:08:00;;;;;;;6.47;2.83;;;21.30;39.00;;;;;;4964373;28;20062;-79
2022/05/07 09:10:31;;;;;;;8.88;3.13;;;21.30;39.70;;;;;;4963783;28;20401;-77
2022/05/07 09:13:17;;;;;;;7.22;2.92;;;21.30;39.30;;;;;;4963735;28;20035;-77
2022/05/07 09:15:57;;;;;;;5.60;2.17;;;21.30;37.90;;;;;;4963675;28;20532;-79
2022/05/07 09:18:25;;;;;;;7.28;2.50;;;21.30;37.10;;;;;;4963606;28;20042;-79
2022/05/07 09:21:16;;;;;;;4.63;2.38;;;21.30;37.70;;;;;;4963202;28;20092;-83
2022/05/07 09:23:47;;;;;;;6.75;2.90;;;21.30;38.30;;;;;;4963813;28;20078;-81
2022/05/07 09:26:27;;;;;;;5.65;2.78;;;21.30;41.90;;;;;;5047119;28;20061;-79
2022/05/07 09:28:54;;;;;;;11.02;3.28;;;21.30;47.00;;;;;;4963333;28;20047;-80
2022/05/07 09:31:26;;;;;;;9.93;2.72;;;21.30;46.20;;;;;;4963935;28;20119;-82
2022/05/07 09:35:47;;;;;;;8.98;2.88;;;21.30;47.10;;;;;;4964045;28;20126;-81
2022/05/07 09:36:46;;;;;;;10.70;2.90;;;21.30;44.40;;;;;;4945889;28;20490;-81
2022/05/07 09:39:15;;;;;;;4.82;2.50;;;21.20;46.90;;;;;;4943325;28;20043;-84
2022/05/07 09:41:43;;;;;;;11.48;2.50;;;21.20;46.70;;;;;;4963560;28;20043;-84
2022/05/07 09:44:10;;;;;;;3.17;2.13;;;21.30;43.80;;;;;;4963077;28;20092;-81
2022/05/07 09:46:38;;;;;;;7.22;2.75;;;21.30;44.30;;;;;;4962952;28;20035;-81
2022/05/07 09:49:05;;;;;;;2.78;1.80;;;21.30;44.70;;;;;;4963178;28;20126;-82
2022/05/07 09:52:12;;;;;;;14.95;2.53;;;21.30;44.50;;;;;;5050166;27;20130;-79
2022/05/07 09:57:31;;;;;;;4.78;2.30;;;21.40;45.80;;;;;;5035323;28;20431;-78
2022/05/07 10:00:07;;;;;;;5.03;1.80;;;21.40;44.10;;;;;;5036039;28;20049;-78
2022/05/07 10:03:09;;;;;;;10.82;2.38;;;21.40;42.80;;;;;;5035796;28;20018;-79
2022/05/07 10:05:47;;;;;;;10.75;2.45;;;21.40;42.30;;;;;;5042423;28;20502;-78
2022/05/07 10:08:27;;;;;;;4.65;2.45;;;21.40;42.20;;;;;;5076673;28;20032;-77
2022/05/07 10:10:54;;;;;;;4.57;2.13;;;21.40;41.10;;;;;;5075811;28;20447;-77
2022/05/07 10:13:21;;;;;;;6.55;2.60;;;21.40;41.20;;;;;;5076703;28;20036;-83
2022/05/07 10:15:58;;;;;;;7.05;2.58;;;21.50;40.80;;;;;;5079469;28;20410;-82
2022/05/07 10:18:34;;;;;;;6.75;2.45;;;21.50;40.30;;;;;;5076554;28;20040;-83
2022/05/07 10:21:11;;;;;;;6.05;2.72;;;21.50;41.00;;;;;;5074783;28;20506;-83
2022/05/07 10:23:48;;;;;;;4.78;2.47;;;21.50;40.10;;;;;;5076713;28;20028;-83
2022/05/07 10:26:14;;;;;;;6.45;3.50;;;21.50;40.70;;;;;;5079428;28;20046;-83
2022/05/07 10:28:42;;;;;;;8.57;4.00;;;21.50;39.70;;;;;;5075978;28;20036;-83
2022/05/07 10:31:27;;;;;;;5.70;3.78;;;21.50;39.90;;;;;;5062886;28;20061;-82
2022/05/07 10:33:53;;;;;;;8.63;4.13;;;21.50;40.20;;;;;;5063358;28;20068;-84
2022/05/07 10:36:19;;;;;;;12.38;4.85;;;21.50;40.10;;;;;;5063596;28;20440;-83
2022/05/07 10:38:46;;;;;;;7.93;4.45;;;21.50;40.40;;;;;;5075699;28;20035;-83
2022/05/07 10:41:15;;;;;;;12.05;5.60;;;21.50;40.20;;;;;;5076225;28;20057;-82
2022/05/07 10:43:46;;;;;;;7.35;4.32;;;21.50;40.20;;;;;;5076733;28;20047;-82
2022/05/07 10:46:16;;;;;;;8.15;4.00;;;21.40;37.70;;;;;;5062553;28;20399;-82
2022/05/07 10:48:53;;;;;;;10.73;4.28;;;21.40;37.40;;;;;;5075504;28;20392;-83
2022/05/07 10:51:19;;;;;;;7.97;4.00;;;21.30;36.40;;;;;;5045210;28;20511;-82
2022/05/07 10:53:46;;;;;;;6.85;3.97;;;21.30;36.80;;;;;;5076776;28;20035;-82
2022/05/07 10:56:13;;;;;;;8.30;4.10;;;21.30;36.40;;;;;;5075970;28;20541;-81
2022/05/07 10:58:47;;;;;;;10.05;4.00;;;21.20;36.50;;;;;;5080023;28;20040;-82
2022/05/07 11:01:15;;;;;;;10.48;4.50;;;21.20;36.30;;;;;;5076999;28;20560;-82
2022/05/07 11:03:41;;;;;;;8.35;3.53;;;21.20;36.10;;;;;;5061281;28;20799;-83
2022/05/07 11:06:07;;;;;;;5.70;3.15;;;21.20;36.00;;;;;;5066484;28;20523;-83
2022/05/07 11:08:35;;;;;;;5.68;3.20;;;21.30;35.70;;;;;;5078702;28;20115;-83
2022/05/07 11:11:12;;;;;;;8.65;3.35;;;21.20;35.60;;;;;;5062233;28;20036;-84
2022/05/07 11:13:45;;;;;;;10.63;3.85;;;21.30;36.20;;;;;;5049278;28;20120;-83
2022/05/07 11:16:12;;;;;;;8.88;3.90;;;21.30;36.50;;;;;;5062263;28;20029;-83
2022/05/07 11:18:41;;;;;;;5.47;3.90;;;21.20;36.10;;;;;;5049849;28;20452;-84
2022/05/07 11:21:08;;;;;;;7.03;3.28;;;21.20;36.00;;;;;;5062317;28;20036;-83
2022/05/07 11:23:39;;;;;;;9.85;3.90;;;21.10;35.80;;;;;;5044981;28;20025;-83
2022/05/07 11:26:19;;;;;;;7.03;3.60;;;21.20;35.90;;;;;;5044165;28;20024;-83
2022/05/07 11:28:46;;;;;;;8.70;3.88;;;21.30;35.70;;;;;;5065197;28;20431;-83
2022/05/07 11:31:33;;;;;;;4.45;2.78;;;21.20;35.80;;;;;;5064567;28;20139;-83
2022/05/07 11:34:01;;;;;;;5.63;3.13;;;21.20;35.40;;;;;;5062238;28;20037;-84
2022/05/07 11:36:27;;;;;;;5.00;2.97;;;21.20;35.50;;;;;;5061479;28;20395;-83
2022/05/07 11:38:58;;;;;;;5.35;2.92;;;21.20;35.50;;;;;;5077780;28;20035;-84
2022/05/07 11:41:24;;;;;;;3.10;2.80;;;21.20;35.00;;;;;;5063095;28;20123;-82
2022/05/07 11:46:47;;;;;;;5.55;2.70;;;21.20;35.00;;;;;;5061342;28;20064;-83
2022/05/07 11:49:13;;;;;;;6.25;3.10;;;21.20;35.10;;;;;;5048453;28;20510;-82
2022/05/07 11:51:39;;;;;;;22.30;4.13;;;21.10;34.80;;;;;;5049098;28;20051;-80
2022/05/07 11:54:09;;;;;;;11.15;4.32;;;21.20;35.30;;;;;;5049236;28;20130;-79
2022/05/07 11:56:47;;;;;;;5.90;3.55;;;21.30;36.70;;;;;;5061844;28;20448;-79
2022/05/07 11:59:16;;;;;;;6.22;3.40;;;21.30;36.40;;;;;;5076449;28;20654;-80
2022/05/07 12:01:49;;;;;;;6.93;3.35;;;21.40;36.40;;;;;;5047237;28;20491;-79
2022/05/07 12:04:15;;;;;;;6.30;2.65;;;21.40;35.50;;;;;;5063796;28;20032;-78
2022/05/07 12:06:41;;;;;;;6.80;3.15;;;21.30;35.30;;;;;;5057862;28;20172;-79
2022/05/07 12:09:12;;;;;;;5.93;2.75;;;21.40;34.80;;;;;;5059990;28;20486;-78
2022/05/07 12:11:38;;;;;;;4.90;2.58;;;21.40;34.80;;;;;;5061466;28;20036;-78
2022/05/07 12:14:04;;;;;;;6.60;2.85;;;21.30;34.70;;;;;;5059004;28;20035;-78
2022/05/07 12:19:15;;;;;;;10.68;2.67;;;21.30;34.20;;;;;;5062289;28;20033;-78
2022/05/07 12:29:54;;;;;;;4.22;2.83;;;21.30;34.90;;;;;;5060136;28;20047;-77
2022/05/07 12:32:26;;;;;;;5.70;2.50;;;21.30;34.70;;;;;;5061010;28;20333;-78
2022/05/07 12:34:54;;;;;;;7.38;2.95;;;21.30;34.80;;;;;;5062829;28;20032;-79
2022/05/07 12:37:20;;;;;;;4.93;2.30;;;21.30;34.70;;;;;;5060039;28;20029;-79
2022/05/07 12:39:46;;;;;;;3.05;2.30;;;21.40;34.40;;;;;;5059806;28;20372;-78
2022/05/07 12:42:12;;;;;;;3.22;2.42;;;21.30;34.60;;;;;;5060728;28;20122;-79
2022/05/07 12:44:43;;;;;;;4.03;2.45;;;21.30;34.70;;;;;;5061039;28;20117;-79
2022/05/07 12:47:09;;;;;;;5.07;2.30;;;21.30;34.90;;;;;;5061363;28;20585;-78
2022/05/07 12:49:35;;;;;;;5.10;2.42;;;21.40;35.60;;;;;;5062312;28;20436;-79
2022/05/07 12:52:03;;;;;;;3.53;2.20;;;21.30;34.80;;;;;;5075722;28;20044;-80
2022/05/07 12:54:30;;;;;;;3.58;2.63;;;21.30;34.90;;;;;;5041921;28;20041;-80
2022/05/07 12:56:56;;;;;;;5.22;2.50;;;21.20;34.30;;;;;;5060295;28;20441;-79
2022/05/07 12:59:22;;;;;;;5.57;3.00;;;21.20;34.20;;;;;;5060188;28;20032;-79
2022/05/07 13:01:48;;;;;;;4.80;2.55;;;21.20;34.60;;;;;;5065199;28;20025;-79
2022/05/07 13:04:14;;;;;;;4.13;2.50;;;21.20;34.50;;;;;;5058842;28;20052;-79
2022/05/07 13:06:40;;;;;;;4.57;2.25;;;21.30;34.40;;;;;;5043864;28;20033;-79
2022/05/07 13:09:06;;;;;;;3.60;2.20;;;21.20;34.40;;;;;;5042063;28;20515;-79
2022/05/07 13:11:32;;;;;;;4.80;2.38;;;21.20;34.40;;;;;;5057614;28;20042;-79
2022/05/07 13:13:58;;;;;;;5.65;2.63;;;21.20;34.60;;;;;;5064460;28;20037;-79
2022/05/07 13:16:24;;;;;;;4.95;2.53;;;21.20;34.30;;;;;;5057719;28;20048;-79
2022/05/07 13:18:50;;;;;;;3.65;2.40;;;21.10;34.30;;;;;;5061748;28;20139;-79
2022/05/07 13:21:16;;;;;;;4.00;2.50;;;21.10;34.10;;;;;;5062385;28;20123;-79
2022/05/07 13:23:42;;;;;;;3.58;2.08;;;21.20;34.40;;;;;;5061231;28;20403;-79
2022/05/07 13:26:08;;;;;;;5.60;2.45;;;21.20;34.40;;;;;;5060778;28;20069;-79
2022/05/07 13:28:35;;;;;;;5.53;2.25;;;21.20;34.40;;;;;;5060089;28;20037;-79
2022/05/07 13:31:01;;;;;;;5.30;2.45;;;21.20;34.40;;;;;;5058391;28;20500;-79